Time;durP1;ratioP1;P1;durP2;ratioP2;P2;SDS_P1;SDS_P2;PMS_P1;PMS_P2;Temp;Humidity;BMP_temperature;BMP_pressure;BME280_temperature;BME280_humidity;BME280_pressure;Samples;Min_cycle;Max_cycle;Signal;HPM_P1;HPM_P2
2021/05/10 00:00:47;;;;;;;;;;;16.40;90.50;;;;;;5024379;28;19932;-72
2021/05/10 00:03:17;;;;;;;;;;;16.40;90.60;;;;;;5031326;28;20083;-72
2021/05/10 00:05:43;;;;;;;;;;;16.40;91.00;;;;;;5032870;28;19928;-72
2021/05/10 00:08:09;;;;;;;;;;;16.30;91.40;;;;;;5016948;28;19921;-72
2021/05/10 00:10:35;;;;;;;;;;;16.30;91.30;;;;;;5032171;28;19924;-72
2021/05/10 00:13:02;;;;;;;;;;;16.30;91.50;;;;;;5029187;28;19921;-72
2021/05/10 00:15:30;;;;;;;;;;;16.30;91.20;;;;;;5026565;28;20003;-73
2021/05/10 00:18:02;;;;;;;;;;;16.20;91.70;;;;;;4998598;28;19925;-72
2021/05/10 00:20:31;;;;;;;;;;;16.20;91.00;;;;;;4998499;28;19922;-72
2021/05/10 00:22:57;;;;;;;;;;;16.20;91.80;;;;;;4988182;28;19968;-72
2021/05/10 00:25:25;;;;;;;;;;;16.20;92.20;;;;;;5002742;28;20317;-72
2021/05/10 00:27:52;;;;;;;;;;;16.20;92.30;;;;;;4987945;28;20002;-72
2021/05/10 00:30:18;;;;;;;;;;;16.20;90.90;;;;;;4979719;28;20373;-73
2021/05/10 00:32:49;;;;;;;;;;;16.20;92.00;;;;;;4997318;28;20017;-72
2021/05/10 00:35:16;;;;;;;;;;;16.20;92.00;;;;;;5001548;28;19953;-72
2021/05/10 00:37:42;;;;;;;;;;;16.20;91.70;;;;;;4998954;28;19959;-72
2021/05/10 00:40:08;;;;;;;;;;;16.20;92.00;;;;;;5004976;28;19949;-72
2021/05/10 00:42:34;;;;;;;;;;;16.20;91.70;;;;;;4998508;28;20243;-72
2021/05/10 00:45:02;;;;;;;;;;;16.20;91.60;;;;;;4993191;28;20013;-72
2021/05/10 00:47:27;;;;;;;;;;;16.20;91.00;;;;;;4985788;28;20437;-72
2021/05/10 00:49:53;;;;;;;;;;;16.30;91.50;;;;;;4987057;28;20016;-72
2021/05/10 00:52:19;;;;;;;;;;;16.20;91.80;;;;;;4986823;28;19922;-72
2021/05/10 00:54:44;;;;;;;;;;;16.30;91.20;;;;;;4994721;28;19936;-72
2021/05/10 00:57:10;;;;;;;;;;;16.30;92.60;;;;;;4996229;28;19921;-73
2021/05/10 00:59:38;;;;;;;;;;;16.30;91.90;;;;;;4985036;28;20007;-72
2021/05/10 01:02:04;;;;;;;;;;;16.30;91.50;;;;;;5001500;28;19975;-72
2021/05/10 01:04:29;;;;;;;;;;;16.30;92.50;;;;;;5001977;28;19914;-72
2021/05/10 01:06:55;;;;;;;;;;;16.30;93.40;;;;;;4992349;28;20017;-72
2021/05/10 01:09:22;;;;;;;;;;;16.30;93.90;;;;;;4986395;28;19918;-72
2021/05/10 01:11:48;;;;;;;;;;;16.30;94.00;;;;;;4996539;28;20020;-72
2021/05/10 01:14:13;;;;;;;;;;;16.20;92.80;;;;;;4993154;28;20305;-72
2021/05/10 01:16:41;;;;;;;;;;;16.20;92.50;;;;;;4986858;28;20370;-72
2021/05/10 01:19:06;;;;;;;;;;;16.20;94.10;;;;;;4999553;28;19983;-72
2021/05/10 01:21:34;;;;;;;;;;;16.30;93.70;;;;;;5000511;28;19919;-72
2021/05/10 01:24:00;;;;;;;;;;;16.20;93.60;;;;;;5003064;28;19928;-72
2021/05/10 01:26:28;;;;;;;;;;;16.30;92.80;;;;;;5003969;28;19925;-73
2021/05/10 01:28:53;;;;;;;;;;;16.20;92.70;;;;;;5003445;28;19933;-73
2021/05/10 01:31:21;;;;;;;;;;;16.20;94.80;;;;;;5005542;28;19914;-73
2021/05/10 01:33:49;;;;;;;;;;;16.20;93.90;;;;;;5010982;28;19921;-73
2021/05/10 01:36:14;;;;;;;;;;;16.20;95.50;;;;;;5009434;28;19921;-72
2021/05/10 01:38:40;;;;;;;;;;;16.10;95.20;;;;;;5010727;28;19921;-72
2021/05/10 01:41:08;;;;;;;;;;;16.20;93.70;;;;;;5010074;28;19924;-72
2021/05/10 01:43:33;;;;;;;;;;;16.10;94.10;;;;;;5002392;28;19919;-72
2021/05/10 01:45:59;;;;;;;;;;;16.20;94.20;;;;;;5002938;28;19936;-72
2021/05/10 01:48:24;;;;;;;;;;;16.10;94.00;;;;;;5002369;28;20262;-72
2021/05/10 01:50:52;;;;;;;;;;;16.10;93.70;;;;;;4995435;28;20470;-72
2021/05/10 01:53:20;;;;;;;;;;;16.20;94.10;;;;;;5002716;28;19953;-72
2021/05/10 01:55:47;;;;;;;;;;;16.10;95.20;;;;;;5002719;28;19963;-72
2021/05/10 01:58:13;;;;;;;;;;;16.10;93.30;;;;;;5002101;28;19983;-72
2021/05/10 02:00:39;;;;;;;;;;;16.20;93.10;;;;;;5003304;28;19914;-72
2021/05/10 02:03:06;;;;;;;;;;;16.20;95.50;;;;;;5008035;28;19927;-72
2021/05/10 02:05:36;;;;;;;;;;;16.20;94.40;;;;;;5005294;28;20801;-73
2021/05/10 02:08:03;;;;;;;;;;;16.20;93.20;;;;;;5001977;28;19921;-73
2021/05/10 02:10:32;;;;;;;;;;;16.10;93.90;;;;;;5000644;28;20011;-73
2021/05/10 02:13:08;;;;;;;;;;;16.20;93.90;;;;;;4981258;28;19929;-73
2021/05/10 02:15:34;;;;;;;;;;;16.20;95.20;;;;;;5000514;28;19921;-73
2021/05/10 02:18:00;;;;;;;;;;;16.20;93.10;;;;;;4978321;28;19984;-73
2021/05/10 02:20:26;;;;;;;;;;;16.20;93.70;;;;;;4984969;28;19922;-72
2021/05/10 02:22:57;;;;;;;;;;;16.20;94.30;;;;;;4998239;28;19921;-72
2021/05/10 02:25:26;;;;;;;;;;;16.20;94.70;;;;;;4998528;28;20012;-72
2021/05/10 02:27:54;;;;;;;;;;;16.20;95.00;;;;;;4998850;28;19914;-73
2021/05/10 02:30:21;;;;;;;;;;;16.20;94.30;;;;;;5002948;28;20001;-72
2021/05/10 02:32:46;;;;;;;;;;;16.20;94.40;;;;;;4995180;28;19914;-72
2021/05/10 02:35:12;;;;;;;;;;;16.20;96.10;;;;;;4998480;28;20367;-72
2021/05/10 02:37:43;;;;;;;;;;;16.20;96.50;;;;;;4985052;28;19982;-72
2021/05/10 02:40:08;;;;;;;;;;;16.10;97.00;;;;;;4985297;28;19983;-72
2021/05/10 02:42:36;;;;;;;;;;;16.10;96.70;;;;;;4985232;28;20367;-72
2021/05/10 02:45:02;;;;;;;;;;;16.10;97.60;;;;;;4985092;28;20261;-72
2021/05/10 02:47:30;;;;;;;;;;;16.00;98.10;;;;;;4984303;28;19933;-73
2021/05/10 02:49:58;;;;;;;;;;;16.00;96.60;;;;;;4985635;28;19928;-72
2021/05/10 02:52:26;;;;;;;;;;;16.00;97.20;;;;;;4986438;28;20274;-73
2021/05/10 02:54:54;;;;;;;;;;;15.90;97.70;;;;;;4984548;28;20599;-72
2021/05/10 02:57:22;;;;;;;;;;;15.90;97.20;;;;;;4989335;28;20395;-72
2021/05/10 02:59:50;;;;;;;;;;;15.90;98.40;;;;;;4998164;28;20506;-73
2021/05/10 03:02:15;;;;;;;;;;;15.80;98.10;;;;;;4987455;28;19922;-72
2021/05/10 03:04:41;;;;;;;;;;;15.80;97.90;;;;;;4984865;28;20359;-72
2021/05/10 03:07:06;;;;;;;;;;;15.80;98.80;;;;;;4982896;28;19971;-72
2021/05/10 03:09:32;;;;;;;;;;;15.70;98.00;;;;;;4999885;28;19913;-72
2021/05/10 03:11:58;;;;;;;;;;;15.70;99.00;;;;;;4992925;28;20009;-72
2021/05/10 03:14:23;;;;;;;;;;;15.70;98.50;;;;;;4984280;28;19917;-72
2021/05/10 03:16:49;;;;;;;;;;;15.60;97.40;;;;;;4984473;28;19933;-71
2021/05/10 03:19:18;;;;;;;;;;;15.60;98.20;;;;;;5021144;28;19921;-72
2021/05/10 03:21:44;;;;;;;;;;;15.60;99.00;;;;;;5021157;28;19987;-71
2021/05/10 03:24:14;;;;;;;;;;;15.50;98.80;;;;;;5021608;28;21794;-72
2021/05/10 03:26:44;;;;;;;;;;;15.40;99.90;;;;;;5020659;28;19986;-72
2021/05/10 03:29:10;;;;;;;;;;;15.50;99.00;;;;;;5021390;28;19928;-72
2021/05/10 03:31:35;;;;;;;;;;;15.40;99.90;;;;;;5020819;28;20121;-72
2021/05/10 03:34:03;;;;;;;;;;;15.40;99.00;;;;;;5027229;28;20351;-72
2021/05/10 03:36:32;;;;;;;;;;;15.40;99.90;;;;;;5007991;28;19921;-73
2021/05/10 03:38:59;;;;;;;;;;;15.30;99.90;;;;;;5021542;28;19965;-72
2021/05/10 03:41:27;;;;;;;;;;;15.30;99.90;;;;;;5004836;28;19921;-72
2021/05/10 03:43:56;;;;;;;;;;;15.30;99.40;;;;;;5027728;28;19917;-73
2021/05/10 03:46:22;;;;;;;;;;;15.30;99.90;;;;;;5021077;28;19921;-72
2021/05/10 03:48:50;;;;;;;;;;;15.30;99.90;;;;;;4998970;28;19943;-72
2021/05/10 03:51:18;;;;;;;;;;;15.30;99.90;;;;;;5001898;28;19971;-72
2021/05/10 03:53:43;;;;;;;;;;;15.30;99.90;;;;;;5021638;28;19917;-72
2021/05/10 03:56:10;;;;;;;;;;;15.30;99.90;;;;;;5001674;28;19928;-72
2021/05/10 03:58:36;;;;;;;;;;;15.30;99.90;;;;;;5001931;28;20350;-73
2021/05/10 04:01:01;;;;;;;;;;;15.30;99.90;;;;;;5020686;28;19931;-72
2021/05/10 04:03:33;;;;;;;;;;;15.30;99.90;;;;;;5020092;28;20508;-73
2021/05/10 04:13:34;;;;;;;;;;;15.30;99.90;;;;;;5028002;28;20487;-73
2021/05/10 04:14:10;;;;;;;;;;;15.30;99.90;;;;;;5026952;28;19943;-73
2021/05/10 04:16:36;;;;;;;;;;;15.40;99.90;;;;;;5027296;28;19917;-73
2021/05/10 04:19:04;;;;;;;;;;;15.40;99.90;;;;;;5029663;28;19984;-73
2021/05/10 04:21:29;;;;;;;;;;;15.40;99.90;;;;;;5004822;28;20362;-73
2021/05/10 04:23:55;;;;;;;;;;;15.40;99.90;;;;;;5023925;28;19924;-72
2021/05/10 04:26:20;;;;;;;;;;;15.50;99.90;;;;;;5024901;28;19975;-72
2021/05/10 04:28:49;;;;;;;;;;;15.50;99.90;;;;;;5024472;28;19920;-72
2021/05/10 04:31:14;;;;;;;;;;;15.50;99.90;;;;;;5007959;28;19932;-72
2021/05/10 04:33:42;;;;;;;;;;;15.50;99.90;;;;;;5031881;28;19913;-72
2021/05/10 04:36:10;;;;;;;;;;;15.50;99.90;;;;;;5026442;28;19921;-72
2021/05/10 04:38:40;;;;;;;;;;;15.50;99.90;;;;;;5030279;28;19928;-72
2021/05/10 04:41:11;;;;;;;;;;;15.50;99.90;;;;;;5029496;28;19928;-72
2021/05/10 04:43:36;;;;;;;;;;;15.50;99.90;;;;;;5024219;28;20328;-73
2021/05/10 04:46:02;;;;;;;;;;;15.50;99.90;;;;;;5023993;28;19921;-72
2021/05/10 04:48:30;;;;;;;;;;;15.60;99.90;;;;;;5023993;28;20441;-72
2021/05/10 04:50:55;;;;;;;;;;;15.70;99.90;;;;;;5024303;28;19956;-72
2021/05/10 04:53:21;;;;;;;;;;;15.90;99.90;;;;;;5007137;28;20013;-72
2021/05/10 04:55:49;;;;;;;;;;;16.00;99.90;;;;;;5007841;28;19956;-73
2021/05/10 04:58:17;;;;;;;;;;;16.10;99.90;;;;;;5031635;28;19932;-73
2021/05/10 05:00:45;;;;;;;;;;;16.10;99.90;;;;;;5025688;28;19921;-73
2021/05/10 05:03:13;;;;;;;;;;;16.20;99.90;;;;;;5023796;28;19924;-72
2021/05/10 05:05:38;;;;;;;;;;;16.20;99.90;;;;;;5023342;28;20019;-72
2021/05/10 05:08:04;;;;;;;;;;;16.20;97.40;;;;;;5023553;28;20418;-72
2021/05/10 05:10:32;;;;;;;;;;;16.30;99.90;;;;;;5023563;28;20402;-73
2021/05/10 05:12:59;;;;;;;;;;;16.40;99.90;;;;;;5023813;28;19952;-73
2021/05/10 05:15:25;;;;;;;;;;;16.40;99.90;;;;;;5023955;28;20251;-73
2021/05/10 05:17:50;;;;;;;;;;;16.50;99.90;;;;;;5023812;28;19980;-73
2021/05/10 05:20:18;;;;;;;;;;;16.50;99.90;;;;;;5023580;28;20433;-73
2021/05/10 05:22:43;;;;;;;;;;;16.60;99.90;;;;;;5023089;28;19924;-73
2021/05/10 05:25:09;;;;;;;;;;;16.70;99.90;;;;;;4984504;28;19921;-73
2021/05/10 05:27:35;;;;;;;;;;;16.80;99.90;;;;;;5023161;28;19980;-73
2021/05/10 05:30:04;;;;;;;;;;;17.10;98.70;;;;;;5022531;28;19921;-73
2021/05/10 05:32:31;;;;;;;;;;;17.10;99.30;;;;;;5022620;28;19917;-73
2021/05/10 05:34:58;;;;;;;;;;;17.20;98.00;;;;;;5023324;28;19990;-73
2021/05/10 05:37:24;;;;;;;;;;;17.30;95.40;;;;;;5023254;28;19976;-73
2021/05/10 05:39:50;;;;;;;;;;;17.40;95.00;;;;;;4992402;28;19917;-73
2021/05/10 05:42:15;;;;;;;;;;;17.60;97.90;;;;;;5022732;28;19970;-73
2021/05/10 05:44:48;;;;;;;;;;;17.70;96.90;;;;;;5000969;28;19944;-73
2021/05/10 05:47:18;;;;;;;;;;;17.80;96.60;;;;;;5027163;28;19936;-72
2021/05/10 05:49:44;;;;;;;;;;;17.90;95.60;;;;;;5010414;28;19931;-72
2021/05/10 05:52:09;;;;;;;;;;;18.00;90.10;;;;;;5022334;28;19921;-72
2021/05/10 05:54:37;;;;;;;;;;;18.20;90.20;;;;;;5007202;28;19913;-71
2021/05/10 05:57:05;;;;;;;;;;;18.30;86.10;;;;;;5010198;28;19953;-73
2021/05/10 05:59:33;;;;;;;;;;;18.40;85.10;;;;;;4988315;28;21703;-72
2021/05/10 06:01:58;;;;;;;;;;;18.50;82.20;;;;;;5022467;28;19998;-71
2021/05/10 06:04:24;;;;;;;;;;;18.60;84.30;;;;;;5021697;28;19925;-72
2021/05/10 06:06:52;;;;;;;;;;;18.70;82.10;;;;;;5005453;28;19935;-71
2021/05/10 06:09:17;;;;;;;;;;;18.80;86.30;;;;;;5029278;28;19987;-72
2021/05/10 06:11:43;;;;;;;;;;;18.90;80.20;;;;;;5009196;28;20510;-72
2021/05/10 06:14:10;;;;;;;;;;;18.90;78.70;;;;;;5028700;28;19963;-72
2021/05/10 06:16:41;;;;;;;;;;;18.90;79.50;;;;;;5004926;28;19928;-72
2021/05/10 06:19:10;;;;;;;;;;;19.00;78.90;;;;;;4994006;28;19930;-79
2021/05/10 06:21:35;;;;;;;;;;;19.10;79.00;;;;;;4983297;28;19964;-80
2021/05/10 06:24:02;;;;;;;;;;;19.10;77.70;;;;;;4993677;28;19983;-81
2021/05/10 06:26:30;;;;;;;;;;;19.10;76.50;;;;;;4994911;28;19949;-77
2021/05/10 06:28:56;;;;;;;;;;;19.20;75.20;;;;;;4994646;28;20460;-78
2021/05/10 06:31:23;;;;;;;;;;;19.20;77.10;;;;;;4993863;28;19914;-77
2021/05/10 06:33:51;;;;;;;;;;;19.20;76.50;;;;;;4995967;28;20311;-77
2021/05/10 06:36:17;;;;;;;;;;;19.30;75.60;;;;;;4990379;28;19929;-77
2021/05/10 06:38:42;;;;;;;;;;;19.30;80.40;;;;;;4992957;28;20519;-78
2021/05/10 06:41:08;;;;;;;;;;;19.30;78.10;;;;;;4989927;28;19922;-76
2021/05/10 06:43:33;;;;;;;;;;;19.40;78.50;;;;;;4999700;28;19918;-78
2021/05/10 06:45:59;;;;;;;;;;;19.40;78.60;;;;;;4992832;28;20028;-78
2021/05/10 06:48:28;;;;;;;;;;;19.40;79.30;;;;;;4991540;28;19914;-78
2021/05/10 06:50:56;;;;;;;;;;;19.40;79.30;;;;;;4990760;28;19956;-78
2021/05/10 06:53:24;;;;;;;;;;;19.50;76.80;;;;;;4990031;28;20059;-77
2021/05/10 06:55:50;;;;;;;;;;;19.50;76.40;;;;;;4992046;28;20462;-77
2021/05/10 06:58:16;;;;;;;;;;;19.60;82.80;;;;;;4973710;28;19918;-80
2021/05/10 07:00:44;;;;;;;;;;;19.60;81.90;;;;;;4991319;28;19980;-79
2021/05/10 07:03:10;;;;;;;;;;;19.60;81.20;;;;;;4987818;28;19914;-79
2021/05/10 07:05:38;;;;;;;;;;;19.60;79.90;;;;;;4992566;28;19929;-76
2021/05/10 07:08:12;;;;;;;;;;;19.60;77.80;;;;;;4990745;28;19926;-77
2021/05/10 07:10:38;;;;;;;;;;;19.50;75.00;;;;;;4992180;28;19928;-77
2021/05/10 07:13:03;;;;;;;;;;;19.60;75.00;;;;;;4992730;28;19914;-77
2021/05/10 07:15:29;;;;;;;;;;;19.50;74.90;;;;;;4988848;28;19984;-77
2021/05/10 07:18:03;;;;;;;;;;;19.50;76.90;;;;;;5005062;28;19936;-77
2021/05/10 07:20:29;;;;;;;;;;;19.50;78.20;;;;;;5024365;28;20055;-75
2021/05/10 07:22:55;;;;;;;;;;;19.50;79.30;;;;;;4990610;28;20536;-76
2021/05/10 07:25:21;;;;;;;;;;;19.50;79.30;;;;;;5025778;28;19924;-77
2021/05/10 07:27:47;;;;;;;;;;;19.40;77.30;;;;;;5025254;28;20282;-77
2021/05/10 07:30:12;;;;;;;;;;;19.50;80.60;;;;;;5025047;28;19917;-76
2021/05/10 07:32:38;;;;;;;;;;;19.50;79.20;;;;;;5024434;28;20053;-79
2021/05/10 07:35:04;;;;;;;;;;;19.50;82.60;;;;;;5007307;28;19929;-76
2021/05/10 07:37:29;;;;;;;;;;;19.50;76.70;;;;;;5006159;28;19916;-76
2021/05/10 07:39:57;;;;;;;;;;;19.50;80.10;;;;;;5024834;28;20516;-77
2021/05/10 07:42:22;;;;;;;;;;;19.50;82.00;;;;;;5025382;28;19921;-77
2021/05/10 07:44:50;;;;;;;;;;;19.60;81.10;;;;;;5007754;28;19928;-77
2021/05/10 07:47:18;;;;;;;;;;;19.70;80.20;;;;;;5024444;28;19925;-78
2021/05/10 07:49:44;;;;;;;;;;;19.70;77.70;;;;;;5024686;28;20359;-76
2021/05/10 07:52:09;;;;;;;;;;;19.80;81.60;;;;;;5024965;28;19998;-78
2021/05/10 07:54:37;;;;;;;;;;;20.00;84.80;;;;;;5025234;28;19924;-76
2021/05/10 07:57:03;;;;;;;;;;;20.20;79.50;;;;;;5027987;28;19925;-77
2021/05/10 07:59:28;;;;;;;;;;;20.30;76.40;;;;;;5026097;28;20327;-79
2021/05/10 08:01:59;;;;;;;;;;;20.30;75.80;;;;;;5030467;28;19913;-76
2021/05/10 08:04:26;;;;;;;;;;;20.50;82.30;;;;;;5028579;28;20340;-73
2021/05/10 08:06:55;;;;;;;;;;;20.60;74.40;;;;;;5026449;28;19924;-77
2021/05/10 08:09:21;;;;;;;;;;;20.60;74.50;;;;;;5010086;28;19932;-79
2021/05/10 08:11:46;;;;;;;;;;;20.40;73.90;;;;;;5010990;28;20319;-79
2021/05/10 08:14:12;;;;;;;;;;;20.40;75.60;;;;;;5009452;28;19928;-78
2021/05/10 08:16:38;;;;;;;;;;;20.20;73.10;;;;;;5011897;28;19947;-78
2021/05/10 08:19:03;;;;;;;;;;;20.20;77.60;;;;;;5025729;28;19940;-79
2021/05/10 08:21:31;;;;;;;;;;;20.10;75.30;;;;;;5005305;28;20502;-83
2021/05/10 08:23:56;;;;;;;;;;;20.10;75.30;;;;;;5007057;28;19956;-78
2021/05/10 08:26:22;;;;;;;;;;;20.20;83.20;;;;;;5027366;28;19960;-78
2021/05/10 08:28:48;;;;;;;;;;;20.30;81.40;;;;;;5027167;28;20009;-77
2021/05/10 08:31:16;;;;;;;;;;;20.40;78.10;;;;;;5026890;28;19917;-77
2021/05/10 08:33:41;;;;;;;;;;;20.40;77.40;;;;;;5027619;28;20376;-81
2021/05/10 08:36:09;;;;;;;;;;;20.50;80.60;;;;;;5030637;28;19968;-77
2021/05/10 08:38:34;;;;;;;;;;;20.60;80.70;;;;;;5011012;28;19912;-77
2021/05/10 08:41:02;;;;;;;;;;;20.60;78.50;;;;;;5030788;28;19932;-79
2021/05/10 08:43:29;;;;;;;;;;;20.50;76.20;;;;;;5030579;28;20037;-83
2021/05/10 08:45:56;;;;;;;;;;;20.50;75.00;;;;;;5008613;28;20457;-81
2021/05/10 08:48:25;;;;;;;;;;;20.20;73.90;;;;;;5028397;28;20261;-79
2021/05/10 08:50:50;;;;;;;;;;;20.10;76.70;;;;;;5007430;28;19921;-77
2021/05/10 08:53:19;;;;;;;;;;;20.10;76.70;;;;;;5013275;28;19924;-77
2021/05/10 08:55:47;;;;;;;;;;;20.00;75.90;;;;;;4992583;28;19909;-77
2021/05/10 08:58:14;;;;;;;;;;;20.20;80.70;;;;;;5029946;28;19921;-77
2021/05/10 09:00:52;;;;;;;;;;;20.30;82.30;;;;;;5030827;28;19928;-77
2021/05/10 09:03:18;;;;;;;;;;;20.20;77.80;;;;;;5015515;28;19920;-79
2021/05/10 09:05:48;;;;;;;;;;;20.20;73.10;;;;;;4997736;28;19925;-77
2021/05/10 09:08:14;;;;;;;;;;;20.30;79.80;;;;;;5029052;28;20518;-77
2021/05/10 09:10:39;;;;;;;;;;;20.20;76.00;;;;;;5028396;28;20402;-79
2021/05/10 09:13:05;;;;;;;;;;;20.20;73.40;;;;;;5029162;28;19921;-80
2021/05/10 09:15:31;;;;;;;;;;;20.10;70.40;;;;;;5027671;28;19923;-77
2021/05/10 09:17:57;;;;;;;;;;;20.20;76.60;;;;;;5000564;28;19936;-77
2021/05/10 09:20:26;;;;;;;;;;;20.40;76.10;;;;;;4993182;28;20306;-79
2021/05/10 09:22:59;;;;;;;;;;;20.50;73.90;;;;;;4997025;28;19931;-77
2021/05/10 09:25:37;;;;;;;;;;;20.50;75.20;;;;;;4989280;28;19932;-78
2021/05/10 09:28:12;;;;;;;;;;;20.70;80.00;;;;;;4997062;28;19952;-78
2021/05/10 09:30:37;;;;;;;;;;;20.80;81.00;;;;;;5011085;28;19987;-77
2021/05/10 09:33:03;;;;;;;;;;;20.80;75.60;;;;;;4993080;28;19933;-78
2021/05/10 09:35:32;;;;;;;;;;;20.70;71.80;;;;;;4991111;28;20578;-78
2021/05/10 09:38:01;;;;;;;;;;;20.60;75.40;;;;;;5000940;28;19945;-77
2021/05/10 09:40:31;;;;;;;;;;;20.50;73.50;;;;;;4993802;28;19922;-80
2021/05/10 09:42:58;;;;;;;;;;;20.30;73.50;;;;;;4994880;28;19918;-78
2021/05/10 09:45:33;;;;;;;;;;;20.20;73.20;;;;;;4997129;28;20055;-80
2021/05/10 09:48:02;;;;;;;;;;;20.10;72.30;;;;;;4996546;28;19917;-75
2021/05/10 09:50:31;;;;;;;;;;;19.90;73.30;;;;;;5010882;28;19944;-80
2021/05/10 09:52:57;;;;;;;;;;;19.60;72.20;;;;;;4988028;28;19972;-77
2021/05/10 09:55:23;;;;;;;;;;;19.60;76.30;;;;;;5000035;28;20366;-78
2021/05/10 09:57:54;;;;;;;;;;;19.40;73.30;;;;;;4999244;28;19914;-79
2021/05/10 10:00:20;;;;;;;;;;;19.40;74.40;;;;;;4991769;28;19988;-80
2021/05/10 10:02:46;;;;;;;;;;;19.40;77.00;;;;;;4999946;28;19914;-81
2021/05/10 10:05:12;;;;;;;;;;;19.20;74.40;;;;;;5001408;28;19928;-78
2021/05/10 10:07:41;;;;;;;;;;;19.30;76.90;;;;;;4996938;28;20033;-78
2021/05/10 10:10:07;;;;;;;;;;;19.20;75.50;;;;;;4996394;28;20366;-78
2021/05/10 10:12:32;;;;;;;;;;;19.20;77.60;;;;;;5003309;28;20032;-77
2021/05/10 10:14:58;;;;;;;;;;;19.10;75.90;;;;;;4996451;28;20267;-78
2021/05/10 10:17:24;;;;;;;;;;;19.00;75.30;;;;;;5001995;28;19929;-78
2021/05/10 10:19:52;;;;;;;;;;;19.00;75.80;;;;;;5005861;28;19945;-77
2021/05/10 10:22:17;;;;;;;;;;;19.00;77.10;;;;;;5027492;28;19921;-79
2021/05/10 10:24:43;;;;;;;;;;;18.80;79.60;;;;;;5007542;28;20051;-77
2021/05/10 10:27:10;;;;;;;;;;;18.90;78.80;;;;;;5005916;28;19928;-79
2021/05/10 10:29:38;;;;;;;;;;;18.90;78.20;;;;;;5009864;28;19927;-80
2021/05/10 10:32:04;;;;;;;;;;;18.90;79.80;;;;;;5010026;28;19917;-79
2021/05/10 10:34:31;;;;;;;;;;;18.80;78.90;;;;;;5010414;28;19921;-76
2021/05/10 10:36:59;;;;;;;;;;;18.90;78.20;;;;;;5007094;28;19924;-79
2021/05/10 10:39:32;;;;;;;;;;;18.80;78.40;;;;;;5027966;28;20048;-78
2021/05/10 10:42:02;;;;;;;;;;;18.80;76.90;;;;;;5029316;28;20027;-78
2021/05/10 10:44:39;;;;;;;;;;;18.70;80.40;;;;;;5028255;28;19921;-78
2021/05/10 10:47:05;;;;;;;;;;;18.70;76.90;;;;;;5011010;28;19928;-84
2021/05/10 10:49:31;;;;;;;;;;;18.60;76.80;;;;;;5011283;28;20301;-77
2021/05/10 10:51:58;;;;;;;;;;;18.60;77.20;;;;;;5027144;28;19917;-78
2021/05/10 10:54:25;;;;;;;;;;;18.70;78.50;;;;;;5011322;28;20008;-77
2021/05/10 10:56:55;;;;;;;;;;;18.70;75.40;;;;;;5028450;28;20026;-77
2021/05/10 10:59:23;;;;;;;;;;;18.70;80.70;;;;;;5025217;28;19924;-77
2021/05/10 11:01:48;;;;;;;;;;;18.80;81.30;;;;;;5028038;28;19921;-78
2021/05/10 11:04:29;;;;;;;;;;;18.80;80.60;;;;;;5027987;28;19931;-78
2021/05/10 11:06:54;;;;;;;;;;;18.80;77.60;;;;;;5007124;28;19932;-77
2021/05/10 11:09:38;;;;;;;;;;;19.00;80.90;;;;;;5026836;28;19929;-78
2021/05/10 11:12:04;;;;;;;;;;;19.00;79.10;;;;;;5026845;28;19917;-76
2021/05/10 11:14:42;;;;;;;;;;;19.20;76.90;;;;;;5010136;28;19978;-76
2021/05/10 11:17:08;;;;;;;;;;;19.30;77.20;;;;;;5027204;28;20363;-76
2021/05/10 11:19:33;;;;;;;;;;;19.50;78.60;;;;;;5025091;28;19928;-75
2021/05/10 11:22:03;;;;;;;;;;;19.50;75.30;;;;;;5026716;28;19914;-76
2021/05/10 11:24:33;;;;;;;;;;;19.40;77.50;;;;;;5009788;28;19921;-78
2021/05/10 11:27:02;;;;;;;;;;;19.40;75.80;;;;;;5009406;28;19971;-77
2021/05/10 11:29:28;;;;;;;;;;;19.40;74.80;;;;;;5012421;28;19994;-77
2021/05/10 11:31:56;;;;;;;;;;;19.30;79.60;;;;;;5033183;28;19913;-77
2021/05/10 11:34:30;;;;;;;;;;;19.20;79.10;;;;;;5033293;28;20378;-77
2021/05/10 11:36:55;;;;;;;;;;;19.10;78.30;;;;;;5015024;28;20066;-77
2021/05/10 11:39:23;;;;;;;;;;;18.70;81.80;;;;;;5015248;28;20007;-75
2021/05/10 11:41:49;;;;;;;;;;;18.60;86.20;;;;;;5033272;28;19917;-76
2021/05/10 11:44:17;;;;;;;;;;;18.80;92.70;;;;;;5029177;28;19921;-76
2021/05/10 11:46:50;;;;;;;;;;;19.00;98.30;;;;;;5026568;28;19975;-76
2021/05/10 11:49:22;;;;;;;;;;;19.20;95.60;;;;;;5034081;28;20560;-76
2021/05/10 11:51:48;;;;;;;;;;;19.20;97.90;;;;;;5035701;28;20017;-76
2021/05/10 11:54:16;;;;;;;;;;;19.00;91.80;;;;;;5033365;28;20038;-78
2021/05/10 11:56:45;;;;;;;;;;;18.80;86.80;;;;;;5009531;28;20292;-77
2021/05/10 12:02:09;;;;;;;;;;;18.30;86.40;;;;;;5010439;28;19943;-77
2021/05/10 12:04:38;;;;;;;;;;;18.40;89.20;;;;;;5013582;28;20335;-75
2021/05/10 12:07:04;;;;;;;;;;;18.40;91.40;;;;;;5016333;28;19956;-75
2021/05/10 12:09:32;;;;;;;;;;;18.50;91.90;;;;;;5033090;28;19945;-75
2021/05/10 12:12:02;;;;;;;;;;;18.50;92.20;;;;;;4999371;28;20396;-75
2021/05/10 12:14:28;;;;;;;;;;;18.50;92.30;;;;;;5032618;28;19928;-75
2021/05/10 12:17:20;;;;;;;;;;;18.40;92.40;;;;;;5032947;28;19921;-75
2021/05/10 12:19:49;;;;;;;;;;;18.30;92.70;;;;;;5028628;28;20227;-76
2021/05/10 12:22:15;;;;;;;;;;;17.90;96.00;;;;;;5031888;28;20612;-77
2021/05/10 12:24:53;;;;;;;;;;;17.90;99.90;;;;;;5014190;28;20376;-80
2021/05/10 12:27:19;;;;;;;;;;;17.70;99.90;;;;;;5024931;28;19975;-75
2021/05/10 12:29:47;;;;;;;;;;;17.50;99.90;;;;;;4997416;28;19913;-74
2021/05/10 12:32:13;;;;;;;;;;;17.60;99.90;;;;;;5031826;28;19999;-76
2021/05/10 12:34:41;;;;;;;;;;;17.50;99.90;;;;;;5014099;28;19925;-76
2021/05/10 12:37:06;;;;;;;;;;;17.40;99.90;;;;;;4995561;28;19921;-75
2021/05/10 12:39:33;;;;;;;;;;;17.30;99.90;;;;;;4997837;28;20412;-75
2021/05/10 12:42:31;;;;;;;;;;;17.10;99.90;;;;;;5008494;28;19932;-75
2021/05/10 12:44:57;;;;;;;;;;;17.10;99.90;;;;;;4985148;28;19913;-75
2021/05/10 12:47:43;;;;;;;;;;;17.20;99.90;;;;;;5011045;28;19972;-75
2021/05/10 12:50:10;;;;;;;;;;;17.20;99.90;;;;;;5027851;28;20036;-75
2021/05/10 12:52:47;;;;;;;;;;;17.20;99.90;;;;;;5029608;28;20426;-75
2021/05/10 12:55:17;;;;;;;;;;;17.20;99.90;;;;;;5027881;28;19917;-74
2021/05/10 12:57:42;;;;;;;;;;;17.20;99.90;;;;;;5027679;28;19921;-75
2021/05/10 13:00:08;;;;;;;;;;;17.10;99.90;;;;;;5027030;28;19940;-74
2021/05/10 13:02:44;;;;;;;;;;;17.10;99.90;;;;;;5012663;28;19917;-75
2021/05/10 13:05:11;;;;;;;;;;;16.80;99.90;;;;;;5028949;28;20013;-76
2021/05/10 13:07:48;;;;;;;;;;;16.80;99.90;;;;;;5011164;28;20003;-74
2021/05/10 13:10:14;;;;;;;;;;;16.90;99.90;;;;;;5029015;28;19913;-74
2021/05/10 13:12:49;;;;;;;;;;;16.90;99.90;;;;;;5010572;28;19921;-74
2021/05/10 13:15:51;;;;;;;;;;;17.10;99.90;;;;;;5027134;28;20377;-74
2021/05/10 13:18:30;;;;;;;;;;;17.00;99.90;;;;;;5008210;28;19928;-74
2021/05/10 13:31:49;;;;;;;;;;;17.00;99.90;;;;;;5016031;28;19924;-75
2021/05/10 13:36:43;;;;;;;;;;;17.20;99.90;;;;;;5009569;28;19914;-74
2021/05/10 13:39:14;;;;;;;;;;;17.30;99.90;;;;;;5027188;28;19913;-75
2021/05/10 13:41:47;;;;;;;;;;;17.30;99.90;;;;;;5029324;28;19932;-75
2021/05/10 13:44:14;;;;;;;;;;;17.30;99.90;;;;;;5029553;28;19921;-76
2021/05/10 13:46:39;;;;;;;;;;;17.20;99.90;;;;;;5029115;28;19920;-76
2021/05/10 13:49:05;;;;;;;;;;;17.00;99.90;;;;;;5029326;28;19920;-76
2021/05/10 13:51:31;;;;;;;;;;;17.10;99.90;;;;;;5009550;28;20486;-75
2021/05/10 13:53:56;;;;;;;;;;;16.90;99.90;;;;;;5011884;28;19917;-74
2021/05/10 13:56:22;;;;;;;;;;;16.70;99.90;;;;;;5029093;28;19979;-74
2021/05/10 13:58:47;;;;;;;;;;;16.60;99.90;;;;;;5005531;28;19918;-73
2021/05/10 14:01:16;;;;;;;;;;;16.70;99.90;;;;;;5008203;28;19932;-73
2021/05/10 14:03:41;;;;;;;;;;;16.70;99.90;;;;;;5021203;28;19936;-73
2021/05/10 14:06:07;;;;;;;;;;;16.50;99.90;;;;;;5000786;28;19921;-72
2021/05/10 14:08:33;;;;;;;;;;;16.40;99.90;;;;;;5009798;28;20498;-72
2021/05/10 14:11:01;;;;;;;;;;;16.40;99.90;;;;;;5009474;28;19924;-72
2021/05/10 14:13:31;;;;;;;;;;;16.40;99.90;;;;;;5028413;28;20442;-72
2021/05/10 14:15:56;;;;;;;;;;;16.30;99.90;;;;;;5022926;28;19912;-72
2021/05/10 14:18:27;;;;;;;;;;;16.30;99.90;;;;;;5028275;28;19932;-71
2021/05/10 14:23:39;;;;;;;;;;;16.30;99.90;;;;;;5029194;28;19928;-72
2021/05/10 14:26:04;;;;;;;;;;;16.30;99.90;;;;;;5010251;28;20481;-71
2021/05/10 14:28:37;;;;;;;;;;;16.10;99.90;;;;;;5026913;28;19924;-72
2021/05/10 14:31:03;;;;;;;;;;;16.10;99.90;;;;;;5006541;28;19919;-71
2021/05/10 14:33:28;;;;;;;;;;;16.10;99.90;;;;;;5012411;28;20020;-72
2021/05/10 14:35:55;;;;;;;;;;;16.10;99.90;;;;;;4995329;28;19921;-72
2021/05/10 14:38:21;;;;;;;;;;;16.10;99.90;;;;;;5010894;28;19917;-72
2021/05/10 14:40:46;;;;;;;;;;;16.20;99.90;;;;;;5008541;28;19927;-71
2021/05/10 14:43:12;;;;;;;;;;;16.20;99.90;;;;;;5026770;28;19917;-71